Time;durP1;ratioP1;P1;durP2;ratioP2;P2;SDS_P1;SDS_P2;PMS_P1;PMS_P2;Temp;Humidity;BMP_temperature;BMP_pressure;BME280_temperature;BME280_humidity;BME280_pressure;Samples;Min_cycle;Max_cycle;Signal;HPM_P1;HPM_P2
2022/05/29 00:00:51;;;;;;;7.70;2.10;;;8.30;99.90;;;;;;4160630;28;20533;-81
2022/05/29 00:02:52;;;;;;;8.07;2.20;;;8.20;99.90;;;;;;4161956;28;20453;-80
2022/05/29 00:04:54;;;;;;;9.47;2.43;;;8.20;99.90;;;;;;4165154;28;20577;-81
2022/05/29 00:06:58;;;;;;;10.60;2.60;;;8.20;99.90;;;;;;4168916;28;20518;-81
2022/05/29 00:08:59;;;;;;;7.33;1.93;;;8.20;99.90;;;;;;4168513;28;20461;-80
2022/05/29 00:11:02;;;;;;;10.90;2.40;;;8.10;99.90;;;;;;4168521;28;20468;-80
2022/05/29 00:13:04;;;;;;;6.50;1.93;;;8.10;99.90;;;;;;4170649;28;20525;-80
2022/05/29 00:15:09;;;;;;;8.33;2.40;;;8.10;99.90;;;;;;4168844;28;20452;-80
2022/05/29 00:17:10;;;;;;;5.43;1.87;;;8.10;99.90;;;;;;4173338;28;20449;-80
2022/05/29 00:19:13;;;;;;;6.13;1.90;;;8.00;99.90;;;;;;4149923;28;20485;-80
2022/05/29 00:21:16;;;;;;;8.47;2.23;;;8.00;99.90;;;;;;4178466;28;20457;-80
2022/05/29 00:23:18;;;;;;;10.20;2.77;;;8.00;99.90;;;;;;4164829;28;20476;-80
2022/05/29 00:25:21;;;;;;;12.33;2.33;;;8.40;99.90;;;;;;4169708;28;20547;-80
2022/05/29 00:27:23;;;;;;;7.50;2.00;;;7.90;99.90;;;;;;4165705;28;20472;-80
2022/05/29 00:29:25;;;;;;;9.30;2.40;;;7.90;99.90;;;;;;4166657;28;20445;-80
2022/05/29 00:31:28;;;;;;;11.50;2.90;;;8.50;99.90;;;;;;4161061;28;20477;-81
2022/05/29 00:33:30;;;;;;;13.63;2.27;;;7.90;99.90;;;;;;4169226;28;20773;-80
2022/05/29 00:35:32;;;;;;;8.60;2.10;;;9.10;99.90;;;;;;4154473;28;20460;-80
2022/05/29 01:39:24;;;;;;;5.47;2.17;;;7.30;99.90;;;;;;4145267;28;20525;-80
2022/05/29 01:41:33;;;;;;;10.17;2.13;;;7.30;99.90;;;;;;4167991;28;20958;-80
2022/05/29 01:43:40;;;;;;;4.73;2.30;;;7.30;99.90;;;;;;4174700;28;20886;-80
2022/05/29 01:45:56;;;;;;;7.17;2.20;;;7.30;99.90;;;;;;4174505;28;20449;-80
2022/05/29 01:48:05;;;;;;;4.97;1.93;;;7.30;99.90;;;;;;4172615;28;20464;-80
2022/05/29 01:50:11;;;;;;;3.87;1.97;;;7.20;99.90;;;;;;4165846;28;20956;-80
2022/05/29 01:52:17;;;;;;;7.60;2.60;;;7.20;99.90;;;;;;4169241;28;20497;-80
2022/05/29 01:54:22;;;;;;;9.93;2.57;;;7.20;99.90;;;;;;4168058;28;20477;-80
2022/05/29 01:56:29;;;;;;;6.00;2.50;;;7.20;99.90;;;;;;4175198;28;21023;-80
2022/05/29 01:58:36;;;;;;;6.90;2.23;;;7.20;99.90;;;;;;4171420;28;20467;-80
2022/05/29 02:00:38;;;;;;;15.00;2.70;;;7.20;99.90;;;;;;4146479;28;20489;-80
2022/05/29 02:02:48;;;;;;;7.47;2.43;;;7.20;99.90;;;;;;4156418;28;20492;-81
2022/05/29 02:04:56;;;;;;;9.07;2.47;;;7.10;99.90;;;;;;4155202;28;20487;-80
2022/05/29 02:09:28;;;;;;;5.23;2.13;;;7.10;99.90;;;;;;4165762;28;20453;-80
2022/05/29 02:11:33;;;;;;;5.33;2.60;;;7.10;99.90;;;;;;4151349;28;20493;-80
2022/05/29 02:13:39;;;;;;;13.00;2.53;;;7.10;99.90;;;;;;4171310;28;20502;-80
2022/05/29 02:15:45;;;;;;;10.30;2.33;;;7.10;99.90;;;;;;4148882;28;20799;-80
2022/05/29 02:17:55;;;;;;;7.03;2.57;;;7.10;99.90;;;;;;4162688;28;20543;-80
2022/05/29 02:20:04;;;;;;;13.70;2.60;;;7.00;99.90;;;;;;4169431;28;20453;-80
2022/05/29 02:22:11;;;;;;;9.83;2.53;;;7.10;99.90;;;;;;4149620;28;20458;-80
2022/05/29 02:24:16;;;;;;;5.33;2.53;;;7.00;99.90;;;;;;4168409;28;20467;-80
2022/05/29 02:26:22;;;;;;;10.40;2.73;;;7.00;99.90;;;;;;4173610;28;20487;-80
2022/05/29 02:28:30;;;;;;;5.27;2.77;;;7.00;99.90;;;;;;4169232;28;20476;-80
2022/05/29 02:30:39;;;;;;;7.13;2.97;;;7.00;99.90;;;;;;4171513;28;20458;-80
2022/05/29 02:32:53;;;;;;;6.57;2.90;;;7.00;99.90;;;;;;4156015;28;20524;-80
2022/05/29 02:35:03;;;;;;;7.33;3.03;;;7.00;99.90;;;;;;4135316;28;20512;-80
2022/05/29 02:37:14;;;;;;;7.63;2.70;;;7.00;99.90;;;;;;4171154;28;20463;-80
2022/05/29 02:39:30;;;;;;;5.93;2.83;;;7.00;99.90;;;;;;4142470;28;20465;-80
2022/05/29 02:41:44;;;;;;;7.37;2.40;;;7.00;99.90;;;;;;4151941;28;20598;-80
2022/05/29 02:43:51;;;;;;;11.73;2.67;;;6.90;99.90;;;;;;4172397;28;20510;-80
2022/05/29 02:46:01;;;;;;;7.80;2.70;;;6.90;99.90;;;;;;4171189;28;20461;-80
2022/05/29 02:48:09;;;;;;;9.43;2.33;;;6.90;99.90;;;;;;4170755;28;20451;-80
2022/05/29 02:50:21;;;;;;;6.43;2.73;;;6.90;99.90;;;;;;4164022;28;20454;-80
2022/05/29 02:52:23;;;;;;;10.37;2.87;;;7.20;99.90;;;;;;4151844;28;20539;-80
2022/05/29 02:54:27;;;;;;;8.00;2.60;;;6.90;99.90;;;;;;4170662;28;20480;-80
2022/05/29 02:56:29;;;;;;;4.63;2.30;;;6.90;99.90;;;;;;4173653;28;20457;-80
2022/05/29 02:58:33;;;;;;;5.63;2.43;;;6.90;99.90;;;;;;4174210;28;20547;-80
2022/05/29 03:00:49;;;;;;;3.90;2.43;;;6.90;99.90;;;;;;4178656;28;20642;-80
2022/05/29 03:03:05;;;;;;;6.03;2.10;;;6.90;99.90;;;;;;4174650;28;20469;-80
2022/05/29 03:05:17;;;;;;;4.70;2.20;;;6.90;99.90;;;;;;4166270;28;20456;-80
2022/05/29 03:07:28;;;;;;;6.03;2.30;;;6.80;99.90;;;;;;4153765;28;20501;-80
2022/05/29 03:09:52;;;;;;;6.50;2.30;;;6.80;99.90;;;;;;4172098;28;20471;-80
2022/05/29 03:11:54;;;;;;;7.93;2.50;;;6.90;99.90;;;;;;4152632;28;20472;-80
2022/05/29 03:14:06;;;;;;;9.93;2.57;;;6.90;99.90;;;;;;4152730;28;20493;-80
2022/05/29 03:16:15;;;;;;;6.17;2.07;;;6.90;99.90;;;;;;4172144;28;20550;-80
2022/05/29 03:18:35;;;;;;;8.37;2.03;;;6.90;99.90;;;;;;4160498;28;20893;-80
2022/05/29 03:20:43;;;;;;;5.53;2.00;;;6.90;99.90;;;;;;4172908;28;20460;-80
2022/05/29 03:22:54;;;;;;;7.23;2.30;;;6.90;99.90;;;;;;4148015;28;20480;-80
2022/05/29 03:25:11;;;;;;;6.13;2.40;;;6.90;99.90;;;;;;4157430;28;20623;-80
2022/05/29 03:27:20;;;;;;;4.60;2.10;;;7.90;99.90;;;;;;4150783;28;20513;-80
2022/05/29 03:29:28;;;;;;;8.57;2.73;;;7.00;99.90;;;;;;4164438;28;20482;-80
2022/05/29 03:31:31;;;;;;;8.77;2.60;;;7.00;99.90;;;;;;4174273;28;20828;-80
2022/05/29 03:33:33;;;;;;;7.23;2.83;;;7.30;99.90;;;;;;4156717;28;20582;-80
2022/05/29 03:35:42;;;;;;;11.17;2.50;;;7.10;99.90;;;;;;4172107;28;20470;-80
2022/05/29 03:37:45;;;;;;;9.73;2.70;;;7.10;99.90;;;;;;4176749;28;20825;-80
2022/05/29 03:39:47;;;;;;;9.80;2.57;;;7.10;99.90;;;;;;4176667;28;20446;-80
2022/05/29 03:41:50;;;;;;;6.27;2.67;;;7.10;99.90;;;;;;4180069;28;20462;-80
2022/05/29 03:43:52;;;;;;;7.83;2.30;;;7.10;99.90;;;;;;4149175;28;20501;-80
2022/05/29 03:45:54;;;;;;;7.00;2.27;;;7.10;99.90;;;;;;4152072;28;20461;-80
2022/05/29 03:47:56;;;;;;;4.00;2.37;;;7.20;99.90;;;;;;4175992;28;20994;-80
2022/05/29 03:49:57;;;;;;;6.03;2.37;;;7.20;99.90;;;;;;4169555;28;21024;-80
2022/05/29 03:52:01;;;;;;;6.50;2.10;;;7.20;99.90;;;;;;4161254;28;21047;-80
2022/05/29 03:54:05;;;;;;;6.27;2.10;;;7.20;99.90;;;;;;4160772;28;21001;-80
2022/05/29 03:56:07;;;;;;;12.77;2.53;;;7.20;99.90;;;;;;4178111;28;20461;-80
2022/05/29 03:58:09;;;;;;;13.40;2.67;;;7.20;99.90;;;;;;4156220;28;20485;-80
2022/05/29 04:00:12;;;;;;;4.70;2.20;;;7.30;99.90;;;;;;4172191;28;20563;-80
2022/05/29 04:02:14;;;;;;;7.73;2.30;;;7.30;99.90;;;;;;4172136;28;20979;-80
2022/05/29 04:04:16;;;;;;;9.70;2.63;;;7.40;99.90;;;;;;4168450;28;20857;-80
2022/05/29 04:06:18;;;;;;;5.17;2.20;;;7.30;99.90;;;;;;4149129;28;20452;-80
2022/05/29 04:13:03;;;;;;;7.60;2.27;;;7.40;99.90;;;;;;4149092;28;21047;-80
2022/05/29 04:15:05;;;;;;;6.47;2.20;;;7.40;99.90;;;;;;4162912;28;20461;-81
2022/05/29 04:17:07;;;;;;;8.87;2.57;;;7.50;99.90;;;;;;4147125;28;20464;-80
2022/05/29 04:19:10;;;;;;;5.53;1.73;;;7.50;99.90;;;;;;4170269;28;20477;-80
2022/05/29 04:21:12;;;;;;;6.97;2.23;;;7.50;99.90;;;;;;4160516;28;20468;-80
2022/05/29 04:23:14;;;;;;;8.10;2.03;;;7.50;99.90;;;;;;4153715;28;20819;-81
2022/05/29 04:25:16;;;;;;;8.23;2.47;;;7.50;99.90;;;;;;4173169;28;20455;-80
2022/05/29 04:27:19;;;;;;;9.07;2.57;;;7.60;99.90;;;;;;4154323;28;20465;-81
2022/05/29 04:29:21;;;;;;;7.80;2.00;;;7.60;99.90;;;;;;4151998;28;20469;-80
2022/05/29 04:31:23;;;;;;;9.77;2.33;;;7.60;99.90;;;;;;4161344;28;20452;-81
2022/05/29 04:33:24;;;;;;;7.43;2.47;;;7.60;99.90;;;;;;4173533;28;20495;-80
2022/05/29 04:35:26;;;;;;;5.10;1.90;;;7.60;99.90;;;;;;4150040;28;20476;-80
2022/05/29 04:37:30;;;;;;;7.47;2.70;;;7.60;99.90;;;;;;4176572;28;20456;-80
2022/05/29 04:39:34;;;;;;;6.97;1.93;;;7.60;99.90;;;;;;4172429;28;20563;-81
2022/05/29 04:41:36;;;;;;;5.37;2.30;;;7.70;99.90;;;;;;4158211;28;20466;-81
2022/05/29 04:43:39;;;;;;;5.87;1.73;;;7.70;99.90;;;;;;4169365;28;20489;-80
2022/05/29 04:45:43;;;;;;;7.10;2.00;;;7.70;99.90;;;;;;4156819;28;20528;-80
2022/05/29 04:47:45;;;;;;;8.30;2.17;;;8.00;99.90;;;;;;4153114;28;20540;-81
2022/05/29 04:49:46;;;;;;;3.50;1.73;;;7.80;99.90;;;;;;4151925;28;20472;-80
2022/05/29 04:51:51;;;;;;;5.13;2.20;;;7.90;99.90;;;;;;4139553;28;20482;-80
2022/05/29 04:53:53;;;;;;;6.30;2.00;;;7.90;99.90;;;;;;4168519;28;21000;-80
2022/05/29 04:55:56;;;;;;;6.47;1.87;;;8.10;99.90;;;;;;4171038;28;20461;-80
2022/05/29 04:57:58;;;;;;;6.23;1.87;;;8.00;99.90;;;;;;4149262;28;20556;-81
2022/05/29 05:00:01;;;;;;;9.83;2.27;;;8.00;99.90;;;;;;4167118;28;20473;-80
2022/05/29 05:02:04;;;;;;;8.43;2.00;;;8.10;99.90;;;;;;4173118;28;20567;-80
2022/05/29 05:04:07;;;;;;;7.47;1.77;;;8.10;99.90;;;;;;4155234;28;20477;-80
2022/05/29 05:06:10;;;;;;;6.57;1.80;;;8.10;99.90;;;;;;4171143;28;20461;-80
2022/05/29 05:08:12;;;;;;;8.33;2.20;;;8.20;99.90;;;;;;4161597;28;20471;-81
2022/05/29 05:10:15;;;;;;;7.23;2.20;;;8.20;99.90;;;;;;4146233;28;20549;-80
2022/05/29 05:12:17;;;;;;;5.60;1.83;;;8.30;99.90;;;;;;4167038;28;20539;-81
2022/05/29 05:14:19;;;;;;;9.57;1.80;;;8.30;99.90;;;;;;4154109;28;20485;-81
2022/05/29 05:16:23;;;;;;;6.67;1.70;;;8.40;99.90;;;;;;4169026;28;20522;-80
2022/05/29 05:18:24;;;;;;;4.87;1.63;;;8.40;99.90;;;;;;4167293;28;20558;-80
2022/05/29 05:20:26;;;;;;;5.43;1.30;;;8.50;99.90;;;;;;4149255;28;20873;-80
2022/05/29 05:22:28;;;;;;;8.23;1.80;;;8.50;99.90;;;;;;4172857;28;20449;-80
2022/05/29 05:24:30;;;;;;;11.17;1.70;;;8.60;99.90;;;;;;4168665;28;20487;-81
2022/05/29 05:26:32;;;;;;;5.13;1.40;;;8.60;99.90;;;;;;4167250;28;20539;-81
2022/05/29 05:28:34;;;;;;;4.83;1.40;;;8.70;99.90;;;;;;4149749;28;20452;-81
2022/05/29 05:30:36;;;;;;;11.17;1.77;;;8.70;99.90;;;;;;4149896;28;20928;-81
2022/05/29 05:32:39;;;;;;;7.97;1.70;;;8.80;99.90;;;;;;4150996;28;20482;-81
2022/05/29 05:34:41;;;;;;;7.20;1.93;;;8.80;99.90;;;;;;4161955;28;20470;-81
2022/05/29 05:36:43;;;;;;;6.93;1.73;;;9.10;99.90;;;;;;4148135;28;20455;-81
2022/05/29 05:38:46;;;;;;;10.57;1.77;;;8.90;99.90;;;;;;4150043;28;21152;-81
2022/05/29 05:40:47;;;;;;;10.27;1.87;;;8.90;99.90;;;;;;4167863;28;20531;-81
2022/05/29 05:42:55;;;;;;;6.53;1.57;;;9.00;99.90;;;;;;4167353;28;20438;-81
2022/05/29 05:44:57;;;;;;;12.17;2.00;;;9.10;99.90;;;;;;4161917;28;20487;-81
2022/05/29 05:46:58;;;;;;;5.37;1.60;;;9.10;99.90;;;;;;4152085;28;20454;-81
2022/05/29 05:49:01;;;;;;;5.00;1.23;;;9.20;99.90;;;;;;4168372;28;20885;-81
2022/05/29 05:51:04;;;;;;;7.00;2.03;;;9.30;99.90;;;;;;4156024;28;20822;-81
2022/05/29 05:53:06;;;;;;;5.83;1.50;;;9.30;99.90;;;;;;4149109;28;20475;-81
2022/05/29 05:55:11;;;;;;;6.60;2.03;;;10.00;99.90;;;;;;4167645;28;20449;-81
2022/05/29 05:57:13;;;;;;;4.07;1.30;;;9.40;99.90;;;;;;4169522;28;20504;-81
2022/05/29 05:59:15;;;;;;;10.53;1.40;;;9.50;99.90;;;;;;4166728;28;20456;-81
2022/05/29 06:01:18;;;;;;;5.23;1.30;;;9.60;99.90;;;;;;4167002;28;20453;-81
2022/05/29 06:03:20;;;;;;;9.53;1.80;;;9.60;99.90;;;;;;4175038;28;20237;-81
2022/05/29 06:05:23;;;;;;;7.77;1.70;;;9.70;99.90;;;;;;4150501;28;20453;-81
2022/05/29 06:07:25;;;;;;;5.90;1.67;;;9.70;99.90;;;;;;4150694;28;20215;-80
2022/05/29 06:09:27;;;;;;;8.57;1.70;;;9.70;99.90;;;;;;4158482;28;20449;-81
2022/05/29 06:11:30;;;;;;;7.23;1.60;;;9.70;99.90;;;;;;4168420;28;20199;-81
2022/05/29 06:13:32;;;;;;;7.93;1.63;;;10.10;99.90;;;;;;4168567;28;20282;-81
2022/05/29 06:15:34;;;;;;;10.83;2.00;;;9.90;99.90;;;;;;4152814;28;20716;-81
2022/05/29 06:17:36;;;;;;;9.80;1.80;;;10.00;99.90;;;;;;4169159;28;20202;-81
2022/05/29 06:19:38;;;;;;;7.50;1.97;;;10.00;99.90;;;;;;4153645;28;20666;-81
2022/05/29 06:21:41;;;;;;;6.67;1.60;;;10.00;99.90;;;;;;4170598;28;20218;-81
2022/05/29 06:23:43;;;;;;;7.23;1.83;;;10.10;99.90;;;;;;4170892;28;20222;-81
2022/05/29 06:25:45;;;;;;;9.43;1.87;;;10.80;99.90;;;;;;4171591;28;20199;-81
2022/05/29 06:27:46;;;;;;;7.33;1.57;;;10.30;99.90;;;;;;4149685;28;20211;-81
2022/05/29 06:29:48;;;;;;;4.80;2.00;;;10.40;99.90;;;;;;4151066;28;20215;-81
2022/05/29 06:31:50;;;;;;;5.07;1.73;;;10.50;99.90;;;;;;4149059;28;20212;-81
2022/05/29 06:33:52;;;;;;;8.93;2.30;;;10.50;99.90;;;;;;4162473;28;20258;-80
2022/05/29 06:35:53;;;;;;;5.73;1.77;;;10.50;99.90;;;;;;4171041;28;20203;-82
2022/05/29 06:37:57;;;;;;;9.93;1.70;;;10.60;99.90;;;;;;4176225;28;20222;-82
2022/05/29 06:39:59;;;;;;;6.03;1.60;;;10.60;99.90;;;;;;4173578;28;20646;-80
2022/05/29 06:42:03;;;;;;;13.67;1.70;;;10.70;99.90;;;;;;4159188;28;20231;-81
2022/05/29 06:44:05;;;;;;;8.33;1.47;;;10.70;99.90;;;;;;4177621;28;20218;-81
2022/05/29 06:46:09;;;;;;;6.80;1.70;;;10.70;99.90;;;;;;4181491;28;20246;-82
2022/05/29 06:48:10;;;;;;;5.57;1.70;;;10.70;99.90;;;;;;4179049;28;20222;-82
2022/05/29 06:50:13;;;;;;;8.53;1.50;;;10.70;99.90;;;;;;4164667;28;20219;-81
2022/05/29 06:52:14;;;;;;;5.43;1.60;;;10.70;99.90;;;;;;4182425;28;20215;-82
2022/05/29 06:54:18;;;;;;;4.27;1.50;;;10.80;99.90;;;;;;4181233;28;20298;-82
2022/05/29 06:56:21;;;;;;;4.17;1.20;;;10.80;99.90;;;;;;4152037;28;20659;-82
2022/05/29 06:58:24;;;;;;;6.13;2.03;;;11.20;99.90;;;;;;4173307;28;20243;-82
2022/05/29 07:07:25;;;;;;;6.17;1.40;;;11.20;99.90;;;;;;4175180;28;20203;-81
2022/05/29 07:09:32;;;;;;;7.47;1.30;;;11.20;99.90;;;;;;4156127;28;20242;-82
2022/05/29 07:11:37;;;;;;;7.20;1.20;;;11.20;99.90;;;;;;4173968;28;20587;-82
2022/05/29 07:13:39;;;;;;;5.50;1.40;;;11.20;99.90;;;;;;4158019;28;20235;-82
2022/05/29 07:15:41;;;;;;;12.67;1.80;;;11.30;99.90;;;;;;4153937;28;20226;-82
2022/05/29 07:17:43;;;;;;;6.23;2.17;;;11.20;99.90;;;;;;4160421;28;20681;-83
2022/05/29 07:19:45;;;;;;;5.87;1.77;;;11.20;99.90;;;;;;4168619;28;20207;-81
2022/05/29 07:21:47;;;;;;;6.33;1.70;;;11.20;99.90;;;;;;4170590;28;20195;-82
2022/05/29 07:23:49;;;;;;;8.23;1.90;;;11.20;99.90;;;;;;4155587;28;20224;-81
2022/05/29 07:25:53;;;;;;;7.60;2.03;;;11.20;99.90;;;;;;4153098;28;20208;-82
2022/05/29 07:27:54;;;;;;;4.00;1.90;;;11.20;99.90;;;;;;4153916;28;20219;-81
2022/05/29 07:29:56;;;;;;;5.00;2.07;;;11.10;99.90;;;;;;4156528;28;20203;-82
2022/05/29 07:31:58;;;;;;;8.37;2.50;;;11.00;99.90;;;;;;4153083;28;20639;-82
2022/05/29 07:34:00;;;;;;;7.33;1.90;;;10.90;99.90;;;;;;4154395;28;20235;-82
2022/05/29 07:36:02;;;;;;;7.40;2.00;;;10.80;99.90;;;;;;4148776;28;20701;-82
2022/05/29 07:38:04;;;;;;;7.03;1.90;;;10.70;99.90;;;;;;4167031;28;20203;-83
2022/05/29 07:40:07;;;;;;;6.07;1.80;;;10.60;99.90;;;;;;4173080;28;20207;-83
2022/05/29 07:44:29;;;;;;;7.20;1.90;;;10.50;99.90;;;;;;4154405;28;20228;-83
2022/05/29 07:46:32;;;;;;;9.87;1.87;;;10.60;99.90;;;;;;4151353;28;20210;-82
2022/05/29 07:48:35;;;;;;;7.13;2.07;;;10.60;99.90;;;;;;4171457;28;20230;-81
2022/05/29 07:50:37;;;;;;;4.93;1.90;;;10.80;99.90;;;;;;4147951;28;20208;-82
2022/05/29 07:52:39;;;;;;;9.23;1.93;;;10.80;99.90;;;;;;4151888;28;20208;-82
2022/05/29 07:54:41;;;;;;;7.23;2.03;;;10.90;99.90;;;;;;4150832;28;20228;-82
2022/05/29 07:56:43;;;;;;;9.40;1.90;;;11.00;99.90;;;;;;4150272;28;20709;-81
2022/05/29 07:58:46;;;;;;;8.63;2.10;;;11.20;99.90;;;;;;4175445;28;20666;-81
2022/05/29 08:00:49;;;;;;;6.30;1.70;;;11.20;99.90;;;;;;4151495;28;20538;-81
2022/05/29 08:02:50;;;;;;;8.37;1.73;;;11.30;99.90;;;;;;4172777;28;20225;-80
2022/05/29 08:04:54;;;;;;;9.27;2.10;;;11.50;99.90;;;;;;4174972;28;20235;-83
2022/05/29 08:06:56;;;;;;;8.10;2.00;;;11.60;99.90;;;;;;4151142;28;20268;-81
2022/05/29 08:08:58;;;;;;;4.87;1.90;;;11.70;99.90;;;;;;4167456;28;20290;-81
2022/05/29 08:10:59;;;;;;;7.47;1.90;;;11.70;99.90;;;;;;4152995;28;20297;-81
2022/05/29 08:13:01;;;;;;;8.30;1.90;;;11.80;99.90;;;;;;4173364;28;20209;-81
2022/05/29 08:15:05;;;;;;;7.87;2.03;;;11.80;99.90;;;;;;4166939;28;20258;-81
2022/05/29 08:17:09;;;;;;;5.03;1.80;;;11.90;99.90;;;;;;4168878;28;20208;-80
2022/05/29 08:19:11;;;;;;;7.90;1.87;;;11.90;99.90;;;;;;4168815;28;20325;-81
2022/05/29 08:21:13;;;;;;;6.43;1.70;;;12.00;99.90;;;;;;4172374;28;20231;-80
2022/05/29 08:23:15;;;;;;;6.73;1.53;;;12.00;99.90;;;;;;4150839;28;20218;-82
2022/05/29 08:32:19;;;;;;;5.20;1.50;;;12.20;99.90;;;;;;4150157;28;20283;-82
2022/05/29 08:34:20;;;;;;;4.97;1.30;;;12.20;99.90;;;;;;4172411;28;20225;-80
2022/05/29 08:36:26;;;;;;;8.33;1.70;;;12.30;99.90;;;;;;4150415;28;20318;-82
2022/05/29 08:38:29;;;;;;;8.93;1.73;;;12.40;99.90;;;;;;4153862;28;20222;-81
2022/05/29 08:40:32;;;;;;;9.23;2.10;;;12.50;99.90;;;;;;4169271;28;20219;-80
2022/05/29 08:42:35;;;;;;;8.67;1.83;;;12.60;99.90;;;;;;4166900;28;20221;-81
2022/05/29 08:44:43;;;;;;;7.07;2.30;;;12.70;99.90;;;;;;4150472;28;20683;-80
2022/05/29 08:46:49;;;;;;;2.43;0.90;;;12.80;99.90;;;;;;4168841;28;20199;-80
2022/05/29 08:48:55;;;;;;;6.77;1.70;;;12.90;99.90;;;;;;4151314;28;20763;-81
2022/05/29 08:51:14;;;;;;;7.07;1.40;;;13.00;99.90;;;;;;4147524;28;20663;-81
2022/05/29 08:53:25;;;;;;;8.63;1.40;;;13.10;99.90;;;;;;4162494;28;20261;-80
2022/05/29 08:55:30;;;;;;;7.50;1.73;;;13.20;99.90;;;;;;4150175;28;20613;-83
2022/05/29 08:57:54;;;;;;;4.07;2.03;;;13.40;99.90;;;;;;4170068;28;20253;-82
2022/05/29 08:59:59;;;;;;;4.17;1.47;;;13.40;99.90;;;;;;4165716;28;20297;-82
2022/05/29 09:02:09;;;;;;;5.87;1.67;;;13.50;99.90;;;;;;4150168;28;20208;-81
2022/05/29 09:04:19;;;;;;;8.93;1.60;;;13.50;99.90;;;;;;4166789;28;20224;-81
2022/05/29 09:06:28;;;;;;;4.90;1.20;;;13.60;99.90;;;;;;4164484;28;20226;-84
2022/05/29 09:08:35;;;;;;;6.30;1.07;;;13.70;99.90;;;;;;4163646;28;20285;-80
2022/05/29 09:10:40;;;;;;;2.90;1.10;;;13.70;99.90;;;;;;4167176;28;20702;-82
2022/05/29 09:12:46;;;;;;;3.97;0.90;;;13.80;99.90;;;;;;4166629;28;20210;-81
2022/05/29 09:14:51;;;;;;;3.03;1.03;;;13.80;99.90;;;;;;4142504;28;20331;-80
2022/05/29 09:16:57;;;;;;;3.00;0.87;;;13.90;99.90;;;;;;4147416;28;20263;-84
2022/05/29 09:19:10;;;;;;;4.47;1.30;;;13.90;99.90;;;;;;4169034;28;20246;-83
2022/05/29 09:21:18;;;;;;;3.13;1.17;;;13.80;99.90;;;;;;4167233;28;20202;-81
2022/05/29 09:23:25;;;;;;;1.47;1.00;;;13.90;99.90;;;;;;4168920;28;20260;-81
2022/05/29 09:25:32;;;;;;;3.80;0.90;;;13.90;99.90;;;;;;4148624;28;20254;-81
2022/05/29 09:27:35;;;;;;;4.00;1.07;;;14.00;99.90;;;;;;4151588;28;20215;-81
2022/05/29 09:29:37;;;;;;;2.63;0.93;;;14.00;99.90;;;;;;4149077;28;20214;-82
2022/05/29 09:31:40;;;;;;;4.30;1.00;;;13.90;99.90;;;;;;4153710;28;20618;-82
2022/05/29 09:33:42;;;;;;;3.33;0.97;;;13.80;99.90;;;;;;4148105;28;20230;-81
2022/05/29 09:35:50;;;;;;;2.20;0.90;;;13.80;99.90;;;;;;4150489;28;20199;-80
2022/05/29 09:38:00;;;;;;;2.57;0.80;;;13.90;99.90;;;;;;4165673;28;20211;-81
2022/05/29 09:40:02;;;;;;;3.33;0.83;;;13.90;99.90;;;;;;4166595;28;20687;-80
2022/05/29 09:42:09;;;;;;;3.23;1.37;;;14.00;99.90;;;;;;4170502;28;20286;-80
2022/05/29 09:44:13;;;;;;;4.10;1.33;;;14.00;99.90;;;;;;4146474;28;20237;-80
2022/05/29 09:46:20;;;;;;;3.40;1.13;;;14.00;99.90;;;;;;4169474;28;20209;-84
2022/05/29 09:50:53;;;;;;;4.30;1.20;;;14.00;99.90;;;;;;4152343;28;20291;-81
2022/05/29 09:52:56;;;;;;;4.77;1.17;;;14.00;99.90;;;;;;4169119;28;20210;-80
2022/05/29 09:55:04;;;;;;;4.33;0.93;;;14.00;98.60;;;;;;4174837;28;20317;-79
2022/05/29 09:57:09;;;;;;;4.20;0.90;;;14.00;97.80;;;;;;4153638;28;20238;-79
2022/05/29 09:59:16;;;;;;;5.83;1.00;;;14.10;96.10;;;;;;4170101;28;20692;-79
2022/05/29 10:01:28;;;;;;;2.07;0.70;;;14.20;93.70;;;;;;4162624;28;20259;-82
2022/05/29 10:03:44;;;;;;;2.83;1.03;;;14.30;91.90;;;;;;4165325;28;20227;-81
2022/05/29 10:05:46;;;;;;;3.43;1.10;;;14.40;92.10;;;;;;4164345;28;20247;-79
2022/05/29 10:07:49;;;;;;;4.47;0.80;;;14.50;88.80;;;;;;4172710;28;20687;-80
2022/05/29 10:10:00;;;;;;;3.63;1.10;;;14.50;82.60;;;;;;4159024;28;20238;-80
2022/05/29 10:12:18;;;;;;;2.87;0.93;;;14.60;85.30;;;;;;4156788;28;20306;-80
2022/05/29 10:14:36;;;;;;;4.77;1.20;;;14.60;82.70;;;;;;4155589;28;20232;-80
2022/05/29 10:16:39;;;;;;;4.47;1.00;;;14.70;89.50;;;;;;4153855;28;20693;-84
2022/05/29 10:18:42;;;;;;;3.27;0.90;;;14.70;91.40;;;;;;4171832;28;20627;-80
2022/05/29 10:20:45;;;;;;;4.00;0.90;;;14.80;92.90;;;;;;4175211;28;20743;-82
2022/05/29 10:22:47;;;;;;;3.47;0.87;;;14.70;91.60;;;;;;4173673;28;20215;-81
2022/05/29 10:24:49;;;;;;;2.23;1.00;;;14.80;91.10;;;;;;4155252;28;20231;-80
2022/05/29 10:26:56;;;;;;;2.50;0.93;;;14.80;84.70;;;;;;4173632;28;20215;-80
2022/05/29 10:28:59;;;;;;;2.00;0.93;;;14.80;76.30;;;;;;4164560;28;20212;-80
2022/05/29 10:31:02;;;;;;;1.10;0.80;;;14.90;73.50;;;;;;4150669;28;20295;-82
2022/05/29 10:33:07;;;;;;;3.13;0.77;;;15.00;76.60;;;;;;4169417;28;20219;-82
2022/05/29 10:35:21;;;;;;;3.30;1.10;;;15.10;71.30;;;;;;4158463;28;20241;-83
2022/05/29 10:37:29;;;;;;;2.83;0.90;;;15.30;68.00;;;;;;4148886;28;20218;-84
2022/05/29 10:39:32;;;;;;;3.30;0.80;;;15.50;68.60;;;;;;4169898;28;20240;-80
2022/05/29 10:41:38;;;;;;;2.30;1.00;;;15.70;64.80;;;;;;4149749;28;20216;-81
2022/05/29 10:43:47;;;;;;;2.20;0.80;;;15.80;62.60;;;;;;4142760;28;20305;-81
2022/05/29 10:45:49;;;;;;;2.73;0.80;;;15.90;63.30;;;;;;4154204;28;20602;-81
2022/05/29 10:48:15;;;;;;;2.30;0.80;;;16.00;63.00;;;;;;4169916;28;20210;-80
2022/05/29 10:50:20;;;;;;;1.70;0.70;;;16.10;57.00;;;;;;4171356;28;20249;-81
2022/05/29 10:52:37;;;;;;;2.43;0.80;;;16.20;54.50;;;;;;4150534;28;20227;-81
2022/05/29 10:54:53;;;;;;;2.60;0.90;;;16.20;55.30;;;;;;4169320;28;20303;-81
2022/05/29 10:57:07;;;;;;;1.83;0.60;;;16.50;55.20;;;;;;4151881;28;20243;-80
2022/05/29 10:59:26;;;;;;;2.97;1.07;;;16.60;55.00;;;;;;4167151;28;20268;-80
2022/05/29 11:04:22;;;;;;;1.07;0.77;;;16.90;56.10;;;;;;4166356;28;20245;-81
2022/05/29 11:06:45;;;;;;;5.37;0.90;;;17.10;57.50;;;;;;4167401;28;20560;-81
2022/05/29 11:09:00;;;;;;;2.00;0.83;;;17.20;54.80;;;;;;4166264;28;20660;-81
2022/05/29 11:11:25;;;;;;;2.40;0.80;;;17.20;53.80;;;;;;4168824;28;20211;-82
2022/05/29 11:13:52;;;;;;;3.83;0.67;;;17.30;54.00;;;;;;4172327;28;20238;-81
2022/05/29 11:16:12;;;;;;;2.67;0.83;;;17.40;52.20;;;;;;4167797;28;20263;-83
2022/05/29 11:18:38;;;;;;;3.23;0.90;;;17.40;51.20;;;;;;4151146;28;20731;-83
2022/05/29 11:20:55;;;;;;;2.27;0.80;;;17.50;50.40;;;;;;4179506;28;20274;-83
2022/05/29 11:23:16;;;;;;;7.70;0.90;;;17.60;49.70;;;;;;4176905;28;20203;-83
2022/05/29 11:25:39;;;;;;;3.70;0.70;;;17.70;47.80;;;;;;4150557;28;20223;-83
2022/05/29 11:27:59;;;;;;;2.47;0.97;;;17.70;47.50;;;;;;4156715;28;20309;-83
2022/05/29 11:30:07;;;;;;;2.13;0.77;;;17.90;47.80;;;;;;4147836;28;20215;-83
2022/05/29 11:32:23;;;;;;;4.27;1.07;;;18.20;47.70;;;;;;4173037;28;20198;-82
2022/05/29 11:34:35;;;;;;;2.47;0.87;;;18.50;46.30;;;;;;4155894;28;20247;-81
2022/05/29 11:36:49;;;;;;;2.47;0.80;;;18.70;45.50;;;;;;4174115;28;20206;-84
2022/05/29 11:39:20;;;;;;;2.80;0.80;;;19.00;44.50;;;;;;4169757;28;20283;-82
2022/05/29 11:41:30;;;;;;;2.60;0.70;;;19.40;44.60;;;;;;4155282;28;20282;-83
2022/05/29 11:43:39;;;;;;;3.20;0.93;;;19.50;44.30;;;;;;4154147;28;20255;-82
2022/05/29 11:53:23;;;;;;;3.90;1.13;;;19.40;45.30;;;;;;4149663;28;20195;-81
2022/05/29 11:55:40;;;;;;;3.07;1.00;;;20.00;45.00;;;;;;4170464;28;20221;-81
2022/05/29 11:57:49;;;;;;;2.40;0.87;;;20.50;44.80;;;;;;4172460;28;20194;-82
2022/05/29 11:59:56;;;;;;;2.03;0.93;;;20.90;41.80;;;;;;4174927;28;20239;-81
2022/05/29 12:02:23;;;;;;;1.63;0.77;;;21.30;40.90;;;;;;4149743;28;20229;-81
2022/05/29 12:04:33;;;;;;;2.73;0.70;;;21.50;39.40;;;;;;4152925;28;20318;-82
2022/05/29 12:06:46;;;;;;;2.97;0.70;;;21.50;39.20;;;;;;4173648;28;20209;-81
2022/05/29 12:08:56;;;;;;;3.23;0.70;;;21.40;39.80;;;;;;4156472;28;20243;-81
2022/05/29 12:11:22;;;;;;;1.47;0.60;;;21.30;39.40;;;;;;4158229;28;20671;-81
2022/05/29 12:13:33;;;;;;;3.27;0.80;;;21.10;39.50;;;;;;4171250;28;20640;-82
2022/05/29 12:15:36;;;;;;;1.63;0.57;;;21.10;39.60;;;;;;4167455;28;20222;-82
2022/05/29 12:17:43;;;;;;;1.03;0.60;;;21.10;39.80;;;;;;4179877;28;20206;-81
2022/05/29 12:19:51;;;;;;;3.23;1.60;;;21.30;39.10;;;;;;4168780;28;20664;-79
2022/05/29 12:21:57;;;;;;;1.40;0.50;;;21.60;38.00;;;;;;4160272;28;20207;-81
2022/05/29 12:24:02;;;;;;;1.47;0.63;;;21.90;36.80;;;;;;4162673;28;20225;-81
2022/05/29 12:26:07;;;;;;;2.13;0.50;;;22.00;36.10;;;;;;4171025;28;20265;-80
2022/05/29 12:28:14;;;;;;;3.77;0.80;;;22.30;36.40;;;;;;4154253;28;20613;-80
2022/05/29 12:30:24;;;;;;;1.40;0.40;;;22.80;36.30;;;;;;4155840;28;20296;-79
2022/05/29 12:32:30;;;;;;;0.77;0.40;;;23.40;35.70;;;;;;4162734;28;20207;-79
2022/05/29 12:34:40;;;;;;;1.67;0.60;;;23.90;34.50;;;;;;4158811;28;20235;-80
2022/05/29 12:37:10;;;;;;;1.50;0.53;;;23.90;34.10;;;;;;4152517;28;20216;-80